Terminal Aerodrome Forecast
Issued by NWS

Home | Current Version | Previous Version | Graphics & Text | Print | Product List | Glossary On
Versions: 1 2 3 4 5 6 7 8 9 10 11 12 13 14 15 16 17
000
FTUS43 KOAX 192331
TAFCDR
TAF
KCDR 192331Z 2000/2024 02012KT 1SM -SN OVC030
     FM200200 36012KT 1/2SM SN FZFG OVC015
     FM200800 35010KT 2SM -SN BR OVC025
     FM201000 33008KT 3SM -SN OVC045
     FM201400 31010KT P6SM BKN060=

USA.gov is the U.S. government's official web portal to all federal, state and local government web resources and services.